Time;durP1;ratioP1;P1;durP2;ratioP2;P2;SDS_P1;SDS_P2;PMS_P1;PMS_P2;Temp;Humidity;BMP_temperature;BMP_pressure;BME280_temperature;BME280_humidity;BME280_pressure;Samples;Min_cycle;Max_cycle;Signal;HPM_P1;HPM_P2
2022/05/06 00:01:32;;;;;;;;;;;24.30;45.40;;;;;;1544011;76;769;-70
2022/05/06 00:03:37;;;;;;;;;;;24.30;45.50;;;;;;1538746;77;1159;-71
2022/05/06 00:05:37;;;;;;;;;;;24.30;45.50;;;;;;1545498;76;1501;-68
2022/05/06 00:07:39;;;;;;;;;;;24.30;45.50;;;;;;1560268;75;679;-68
2022/05/06 00:09:46;;;;;;;;;;;24.30;45.40;;;;;;1540531;77;1939;-68
2022/05/06 00:11:45;;;;;;;;;;;24.30;45.50;;;;;;1541261;76;1458;-70
2022/05/06 00:13:47;;;;;;;;;;;24.30;45.40;;;;;;1547473;75;1122;-73
2022/05/06 00:15:48;;;;;;;;;;;24.30;45.50;;;;;;1539308;77;799;-67
2022/05/06 00:17:50;;;;;;;;;;;24.20;45.30;;;;;;1540652;77;707;-68
2022/05/06 00:19:52;;;;;;;;;;;24.30;45.40;;;;;;1540508;77;692;-69
2022/05/06 00:21:54;;;;;;;;;;;24.30;45.50;;;;;;1540670;77;541;-68
2022/05/06 00:23:56;;;;;;;;;;;24.30;45.40;;;;;;1553864;75;1404;-68
2022/05/06 00:25:59;;;;;;;;;;;24.30;45.50;;;;;;1559031;75;668;-71
2022/05/06 00:28:01;;;;;;;;;;;24.20;45.20;;;;;;1544934;74;724;-68
2022/05/06 00:30:03;;;;;;;;;;;24.20;45.20;;;;;;1511747;78;1931;-68
2022/05/06 00:32:05;;;;;;;;;;;24.30;45.40;;;;;;1526589;76;530;-70
2022/05/06 00:34:09;;;;;;;;;;;24.30;45.30;;;;;;1545994;74;1132;-69
2022/05/06 00:36:11;;;;;;;;;;;24.30;45.40;;;;;;1539870;76;762;-70
2022/05/06 00:38:12;;;;;;;;;;;24.20;45.30;;;;;;1539854;75;752;-70
2022/05/06 00:40:15;;;;;;;;;;;24.30;45.50;;;;;;1539148;77;503;-70
2022/05/06 00:42:17;;;;;;;;;;;24.20;45.30;;;;;;1540101;76;1113;-70
2022/05/06 00:44:18;;;;;;;;;;;24.20;45.20;;;;;;1540521;77;727;-71
2022/05/06 00:46:20;;;;;;;;;;;24.30;45.40;;;;;;1540392;76;657;-69
2022/05/06 00:48:24;;;;;;;;;;;24.30;45.50;;;;;;1538746;76;697;-67
2022/05/06 00:50:26;;;;;;;;;;;24.30;45.50;;;;;;1552107;75;1931;-71
2022/05/06 00:52:28;;;;;;;;;;;24.30;45.40;;;;;;1543577;75;1085;-68
2022/05/06 00:54:29;;;;;;;;;;;24.30;45.40;;;;;;1546665;77;712;-68
2022/05/06 00:56:31;;;;;;;;;;;24.20;45.30;;;;;;1541912;77;726;-68
2022/05/06 00:58:33;;;;;;;;;;;24.20;45.30;;;;;;1540107;76;689;-71
2022/05/06 01:00:35;;;;;;;;;;;24.30;45.40;;;;;;1541453;76;616;-69
2022/05/06 01:02:37;;;;;;;;;;;24.20;45.30;;;;;;1538228;76;1974;-69
2022/05/06 01:04:39;;;;;;;;;;;24.20;45.30;;;;;;1539681;76;724;-70
2022/05/06 01:06:41;;;;;;;;;;;24.20;45.20;;;;;;1539433;77;732;-68
2022/05/06 01:08:43;;;;;;;;;;;24.30;45.40;;;;;;1548566;76;671;-70
2022/05/06 01:10:46;;;;;;;;;;;24.30;45.50;;;;;;1546650;75;1935;-68
2022/05/06 01:12:48;;;;;;;;;;;24.20;45.30;;;;;;1545861;72;2039;-62
2022/05/06 01:14:50;;;;;;;;;;;24.30;45.50;;;;;;1575682;75;700;-64
2022/05/06 01:16:52;;;;;;;;;;;24.20;45.30;;;;;;1541668;76;672;-66
2022/05/06 01:18:54;;;;;;;;;;;24.30;45.50;;;;;;1538758;77;691;-63
2022/05/06 01:20:55;;;;;;;;;;;24.20;45.30;;;;;;1538870;77;1617;-66
2022/05/06 01:23:00;;;;;;;;;;;24.20;45.30;;;;;;1527542;77;1206;-65
2022/05/06 01:25:02;;;;;;;;;;;24.20;45.40;;;;;;1536215;76;782;-64
2022/05/06 01:27:07;;;;;;;;;;;24.20;45.40;;;;;;1542612;76;630;-64
2022/05/06 01:29:09;;;;;;;;;;;24.20;45.50;;;;;;1541157;77;1926;-64
2022/05/06 01:31:13;;;;;;;;;;;24.20;45.50;;;;;;1537329;77;650;-64
2022/05/06 01:33:16;;;;;;;;;;;24.20;45.50;;;;;;1505669;79;1152;-64
2022/05/06 01:35:19;;;;;;;;;;;24.20;45.40;;;;;;1510822;76;699;-65
2022/05/06 01:37:20;;;;;;;;;;;24.20;45.40;;;;;;1538927;77;740;-64
2022/05/06 01:39:33;;;;;;;;;;;24.20;45.50;;;;;;1541741;77;668;-64
2022/05/06 01:41:35;;;;;;;;;;;24.20;45.40;;;;;;1539370;76;1206;-65
2022/05/06 01:43:42;;;;;;;;;;;24.20;45.40;;;;;;1540087;76;1142;-64
2022/05/06 01:45:49;;;;;;;;;;;24.20;45.50;;;;;;1527067;77;1055;-64
2022/05/06 01:47:47;;;;;;;;;;;24.10;45.50;;;;;;1528561;78;985;-64
2022/05/06 01:49:50;;;;;;;;;;;24.10;45.50;;;;;;1529710;78;1936;-64
2022/05/06 01:51:53;;;;;;;;;;;24.20;45.50;;;;;;1529725;78;637;-64
2022/05/06 01:53:55;;;;;;;;;;;24.20;45.50;;;;;;1528447;77;1155;-64
2022/05/06 01:55:56;;;;;;;;;;;24.10;45.50;;;;;;1542112;76;672;-64
2022/05/06 01:57:58;;;;;;;;;;;24.10;45.50;;;;;;1537962;76;1366;-64
2022/05/06 02:00:00;;;;;;;;;;;24.10;45.50;;;;;;1527366;77;667;-65
2022/05/06 02:02:02;;;;;;;;;;;24.10;45.50;;;;;;1576050;75;671;-64
2022/05/06 02:06:24;;;;;;;;;;;24.10;45.50;;;;;;1527684;77;1673;-67
2022/05/06 02:08:26;;;;;;;;;;;24.20;45.50;;;;;;1531273;77;700;-65
2022/05/06 02:10:28;;;;;;;;;;;24.20;45.50;;;;;;1531188;77;1913;-65
2022/05/06 02:12:30;;;;;;;;;;;24.10;45.50;;;;;;1534134;76;652;-66
2022/05/06 02:14:33;;;;;;;;;;;24.10;45.50;;;;;;1538536;76;1321;-64
2022/05/06 02:16:35;;;;;;;;;;;24.10;45.50;;;;;;1525830;77;1321;-65
2022/05/06 02:18:37;;;;;;;;;;;24.10;45.50;;;;;;1546040;76;515;-65
2022/05/06 02:20:39;;;;;;;;;;;24.20;45.60;;;;;;1510737;76;726;-66
2022/05/06 02:22:45;;;;;;;;;;;24.10;45.50;;;;;;1528888;76;1145;-65
2022/05/06 02:24:44;;;;;;;;;;;24.10;45.60;;;;;;1563877;76;1570;-66
2022/05/06 02:26:46;;;;;;;;;;;24.10;45.50;;;;;;1541616;76;815;-66
2022/05/06 02:28:48;;;;;;;;;;;24.20;45.50;;;;;;1545304;76;773;-65
2022/05/06 02:33:16;;;;;;;;;;;24.20;45.50;;;;;;1513409;78;1656;-65
2022/05/06 02:35:18;;;;;;;;;;;24.30;45.50;;;;;;1538437;76;536;-65
2022/05/06 02:37:20;;;;;;;;;;;24.40;45.40;;;;;;1539269;77;673;-67
2022/05/06 02:39:22;;;;;;;;;;;24.40;45.50;;;;;;1539852;76;712;-65
2022/05/06 02:41:24;;;;;;;;;;;24.40;45.50;;;;;;1538404;77;675;-65
2022/05/06 02:43:26;;;;;;;;;;;24.40;45.80;;;;;;1537556;77;1102;-65
2022/05/06 02:45:28;;;;;;;;;;;24.30;46.00;;;;;;1537610;77;707;-65
2022/05/06 02:47:29;;;;;;;;;;;24.20;46.10;;;;;;1537822;77;536;-67
2022/05/06 02:49:31;;;;;;;;;;;24.30;46.40;;;;;;1539669;76;707;-65
2022/05/06 02:51:33;;;;;;;;;;;24.30;46.50;;;;;;1542909;76;1943;-66
2022/05/06 02:53:36;;;;;;;;;;;24.10;46.60;;;;;;1535734;77;1604;-65
2022/05/06 02:55:42;;;;;;;;;;;24.10;46.70;;;;;;1536253;76;741;-64
2022/05/06 02:57:41;;;;;;;;;;;24.20;46.70;;;;;;1517280;77;1641;-64
2022/05/06 02:59:43;;;;;;;;;;;24.20;46.80;;;;;;1539224;76;746;-63
2022/05/06 03:01:45;;;;;;;;;;;24.20;46.70;;;;;;1536321;76;745;-62
2022/05/06 03:03:47;;;;;;;;;;;24.20;46.80;;;;;;1535796;77;1136;-64
2022/05/06 03:05:48;;;;;;;;;;;24.20;46.80;;;;;;1539023;77;729;-64
2022/05/06 03:07:51;;;;;;;;;;;24.30;46.90;;;;;;1538337;77;760;-64
2022/05/06 03:09:53;;;;;;;;;;;24.30;46.90;;;;;;1524284;76;1939;-65
2022/05/06 03:11:55;;;;;;;;;;;24.30;46.80;;;;;;1530360;76;810;-63
2022/05/06 03:13:57;;;;;;;;;;;24.30;46.70;;;;;;1541034;76;1275;-64
2022/05/06 03:15:58;;;;;;;;;;;24.30;46.70;;;;;;1529150;77;469;-65
2022/05/06 03:18:00;;;;;;;;;;;24.30;46.60;;;;;;1539950;76;677;-64
2022/05/06 03:20:06;;;;;;;;;;;24.30;46.50;;;;;;1539106;77;667;-64
2022/05/06 03:22:07;;;;;;;;;;;24.30;46.50;;;;;;1532978;77;1640;-65
2022/05/06 03:24:09;;;;;;;;;;;24.30;46.50;;;;;;1537762;77;1149;-64
2022/05/06 03:26:10;;;;;;;;;;;24.30;46.40;;;;;;1539200;76;725;-65
2022/05/06 03:28:12;;;;;;;;;;;24.30;46.50;;;;;;1547139;76;758;-66
2022/05/06 03:30:14;;;;;;;;;;;24.30;46.40;;;;;;1539072;77;1941;-65
2022/05/06 03:32:16;;;;;;;;;;;24.30;46.40;;;;;;1546496;76;722;-64
2022/05/06 03:34:19;;;;;;;;;;;24.30;46.40;;;;;;1550369;76;1125;-64
2022/05/06 03:36:21;;;;;;;;;;;24.30;46.40;;;;;;1538165;76;746;-65
2022/05/06 03:38:23;;;;;;;;;;;24.30;46.40;;;;;;1537926;77;706;-65
2022/05/06 03:40:25;;;;;;;;;;;24.40;46.40;;;;;;1537728;77;642;-67
2022/05/06 03:42:27;;;;;;;;;;;24.30;46.30;;;;;;1541878;77;711;-64
2022/05/06 03:44:29;;;;;;;;;;;24.30;46.40;;;;;;1541386;76;1107;-63
2022/05/06 03:46:31;;;;;;;;;;;24.30;46.30;;;;;;1541120;77;658;-64
2022/05/06 03:48:34;;;;;;;;;;;24.30;46.30;;;;;;1538650;77;709;-63
2022/05/06 03:52:56;;;;;;;;;;;24.30;46.30;;;;;;1532228;76;1951;-64
2022/05/06 03:54:58;;;;;;;;;;;24.30;46.30;;;;;;1539128;77;691;-62
2022/05/06 03:57:00;;;;;;;;;;;24.30;46.30;;;;;;1538808;76;685;-67
2022/05/06 03:59:02;;;;;;;;;;;24.30;46.30;;;;;;1531666;77;761;-64
2022/05/06 04:01:07;;;;;;;;;;;24.40;46.30;;;;;;1525362;78;701;-65
2022/05/06 04:03:09;;;;;;;;;;;24.30;46.20;;;;;;1536997;76;1141;-69
2022/05/06 04:05:11;;;;;;;;;;;24.40;46.30;;;;;;1532936;76;741;-69
2022/05/06 04:07:14;;;;;;;;;;;24.60;45.70;;;;;;1531172;76;778;-66
2022/05/06 04:09:18;;;;;;;;;;;24.70;45.40;;;;;;1538705;76;1499;-68
2022/05/06 04:11:20;;;;;;;;;;;24.70;45.10;;;;;;1531425;76;1911;-68
2022/05/06 04:13:22;;;;;;;;;;;24.70;44.90;;;;;;1535958;76;1118;-68
2022/05/06 04:15:24;;;;;;;;;;;24.80;44.90;;;;;;1530352;76;818;-67
2022/05/06 04:17:26;;;;;;;;;;;24.70;44.80;;;;;;1530618;76;621;-68
2022/05/06 04:19:28;;;;;;;;;;;24.70;44.80;;;;;;1527652;76;710;-68
2022/05/06 04:23:49;;;;;;;;;;;24.70;44.70;;;;;;1525734;76;1658;-68
2022/05/06 04:25:51;;;;;;;;;;;24.60;44.60;;;;;;1531929;76;746;-68
2022/05/06 04:27:53;;;;;;;;;;;24.60;44.60;;;;;;1532619;76;732;-68
2022/05/06 04:29:55;;;;;;;;;;;24.60;44.60;;;;;;1532399;76;719;-67
2022/05/06 04:31:57;;;;;;;;;;;24.70;44.70;;;;;;1530080;76;1953;-68
2022/05/06 04:33:59;;;;;;;;;;;24.60;44.60;;;;;;1527818;76;1185;-68
2022/05/06 04:36:00;;;;;;;;;;;24.60;44.60;;;;;;1526968;76;756;-69
2022/05/06 04:38:02;;;;;;;;;;;24.60;44.60;;;;;;1531301;76;727;-69
2022/05/06 04:40:05;;;;;;;;;;;24.70;44.70;;;;;;1536133;76;888;-69
2022/05/06 04:42:07;;;;;;;;;;;24.60;44.60;;;;;;1527599;76;612;-67
2022/05/06 04:44:09;;;;;;;;;;;24.60;44.50;;;;;;1530696;76;1142;-68
2022/05/06 04:46:10;;;;;;;;;;;24.60;44.50;;;;;;1532012;76;1500;-66
2022/05/06 04:48:12;;;;;;;;;;;24.60;44.50;;;;;;1533281;77;685;-69
2022/05/06 04:50:14;;;;;;;;;;;24.60;44.50;;;;;;1548283;76;729;-65
2022/05/06 04:52:16;;;;;;;;;;;24.60;44.40;;;;;;1539808;76;1913;-71
2022/05/06 04:54:18;;;;;;;;;;;24.70;44.50;;;;;;1535883;77;1130;-68
2022/05/06 04:56:21;;;;;;;;;;;24.60;44.20;;;;;;1532008;76;720;-64
2022/05/06 04:58:23;;;;;;;;;;;24.60;43.90;;;;;;1531205;77;688;-64
2022/05/06 05:00:25;;;;;;;;;;;24.60;43.90;;;;;;1536743;76;719;-67
2022/05/06 05:02:28;;;;;;;;;;;24.50;43.90;;;;;;1535230;76;716;-67
2022/05/06 05:04:30;;;;;;;;;;;24.50;43.90;;;;;;1536201;76;1486;-68
2022/05/06 05:06:33;;;;;;;;;;;24.60;43.90;;;;;;1527412;77;734;-67
2022/05/06 05:08:35;;;;;;;;;;;24.50;43.80;;;;;;1540694;77;668;-66
2022/05/06 05:10:36;;;;;;;;;;;24.50;43.80;;;;;;1538967;77;1947;-67
2022/05/06 05:12:38;;;;;;;;;;;24.50;43.70;;;;;;1535966;76;1162;-68
2022/05/06 05:14:41;;;;;;;;;;;24.50;43.70;;;;;;1529772;76;715;-66
2022/05/06 05:16:43;;;;;;;;;;;24.60;43.70;;;;;;1534457;76;757;-67
2022/05/06 05:18:45;;;;;;;;;;;24.60;43.60;;;;;;1546179;76;663;-67
2022/05/06 05:20:47;;;;;;;;;;;24.60;43.60;;;;;;1536439;76;770;-67
2022/05/06 05:22:49;;;;;;;;;;;24.60;43.60;;;;;;1537941;77;1158;-67
2022/05/06 05:24:51;;;;;;;;;;;24.60;43.50;;;;;;1532286;76;688;-68
2022/05/06 05:26:54;;;;;;;;;;;24.60;43.50;;;;;;1526890;76;627;-68
2022/05/06 05:28:56;;;;;;;;;;;24.60;43.50;;;;;;1537867;76;695;-68
2022/05/06 05:30:57;;;;;;;;;;;24.60;43.40;;;;;;1537525;77;1935;-69
2022/05/06 05:32:59;;;;;;;;;;;24.60;43.50;;;;;;1540308;76;1146;-68
2022/05/06 05:35:01;;;;;;;;;;;24.60;43.40;;;;;;1536493;76;731;-67
2022/05/06 05:37:03;;;;;;;;;;;24.60;43.40;;;;;;1530226;76;729;-68
2022/05/06 05:39:05;;;;;;;;;;;24.60;43.40;;;;;;1533352;76;730;-68
2022/05/06 05:41:07;;;;;;;;;;;24.60;43.40;;;;;;1537817;77;704;-68
2022/05/06 05:48:19;;;;;;;;;;;24.60;43.40;;;;;;1530743;76;1593;-70
2022/05/06 05:48:19;;;;;;;;;;;24.70;43.40;;;;;;1538215;77;1718;-68
2022/05/06 05:49:39;;;;;;;;;;;24.60;43.30;;;;;;1519255;77;1264;-68
2022/05/06 05:51:41;;;;;;;;;;;24.70;43.40;;;;;;1536566;77;1924;-67
2022/05/06 05:53:42;;;;;;;;;;;24.70;43.40;;;;;;1539022;76;1129;-68
2022/05/06 05:55:44;;;;;;;;;;;24.70;43.30;;;;;;1539836;76;661;-68
2022/05/06 05:57:47;;;;;;;;;;;24.70;43.30;;;;;;1539777;76;709;-68
2022/05/06 05:59:49;;;;;;;;;;;24.70;43.20;;;;;;1553141;76;766;-68
2022/05/06 06:01:51;;;;;;;;;;;24.70;43.20;;;;;;1533630;77;1637;-68
2022/05/06 06:03:52;;;;;;;;;;;24.70;43.20;;;;;;1522524;76;1131;-68
2022/05/06 06:05:54;;;;;;;;;;;24.70;43.20;;;;;;1514307;77;685;-68
2022/05/06 06:07:56;;;;;;;;;;;24.60;43.00;;;;;;1522295;76;681;-68
2022/05/06 06:09:58;;;;;;;;;;;24.70;43.10;;;;;;1539291;76;704;-69
2022/05/06 06:12:00;;;;;;;;;;;24.70;43.10;;;;;;1538098;76;1936;-67
2022/05/06 06:14:02;;;;;;;;;;;24.60;42.90;;;;;;1537811;76;1131;-66
2022/05/06 06:16:05;;;;;;;;;;;24.70;43.10;;;;;;1534817;76;829;-66
2022/05/06 06:18:07;;;;;;;;;;;24.60;43.00;;;;;;1536206;76;716;-67
2022/05/06 06:20:09;;;;;;;;;;;24.60;43.00;;;;;;1535933;77;710;-66
2022/05/06 06:22:12;;;;;;;;;;;24.60;43.10;;;;;;1538867;77;888;-68
2022/05/06 06:24:14;;;;;;;;;;;24.60;43.00;;;;;;1560340;76;1193;-67
2022/05/06 06:26:16;;;;;;;;;;;24.60;43.00;;;;;;1528870;76;655;-67
2022/05/06 06:28:18;;;;;;;;;;;24.70;43.10;;;;;;1532678;77;662;-66
2022/05/06 06:30:20;;;;;;;;;;;24.70;43.10;;;;;;1529341;76;719;-65
2022/05/06 06:32:22;;;;;;;;;;;24.70;43.00;;;;;;1531362;77;1952;-67
2022/05/06 06:34:24;;;;;;;;;;;24.70;43.00;;;;;;1531910;77;1162;-66
2022/05/06 06:36:26;;;;;;;;;;;24.70;42.90;;;;;;1539010;76;694;-67
2022/05/06 06:38:28;;;;;;;;;;;24.70;42.90;;;;;;1535834;77;1585;-66
2022/05/06 06:40:30;;;;;;;;;;;24.80;42.80;;;;;;1537609;76;743;-66
2022/05/06 06:42:32;;;;;;;;;;;24.80;42.80;;;;;;1539874;76;682;-65
2022/05/06 06:44:33;;;;;;;;;;;24.80;42.80;;;;;;1537643;76;1159;-66
2022/05/06 06:46:35;;;;;;;;;;;24.80;42.80;;;;;;1537023;76;716;-67
2022/05/06 06:48:39;;;;;;;;;;;24.80;42.70;;;;;;1533509;76;716;-65
2022/05/06 06:50:41;;;;;;;;;;;24.80;42.70;;;;;;1530210;77;1960;-66
2022/05/06 06:52:43;;;;;;;;;;;24.80;42.60;;;;;;1538334;76;1956;-67
2022/05/06 06:54:44;;;;;;;;;;;24.80;42.70;;;;;;1531266;77;692;-66
2022/05/06 06:56:46;;;;;;;;;;;24.80;42.80;;;;;;1537197;76;684;-64
2022/05/06 06:58:48;;;;;;;;;;;24.80;42.80;;;;;;1538747;76;1605;-66
2022/05/06 07:00:50;;;;;;;;;;;24.80;42.80;;;;;;1538617;76;765;-66
2022/05/06 07:02:53;;;;;;;;;;;24.80;42.70;;;;;;1533474;77;1108;-67
2022/05/06 07:04:55;;;;;;;;;;;24.80;42.80;;;;;;1522871;76;694;-66
2022/05/06 07:11:55;;;;;;;;;;;24.80;42.70;;;;;;1538586;76;1924;-66
2022/05/06 07:13:57;;;;;;;;;;;24.80;42.60;;;;;;1531331;74;2055;-63
2022/05/06 07:15:59;;;;;;;;;;;24.90;42.70;;;;;;1512598;76;533;-62
2022/05/06 07:18:01;;;;;;;;;;;24.90;42.60;;;;;;1524694;76;676;-64
2022/05/06 07:20:03;;;;;;;;;;;24.80;42.50;;;;;;1524066;77;698;-63
2022/05/06 07:22:05;;;;;;;;;;;24.80;42.50;;;;;;1530139;77;671;-63
2022/05/06 07:24:07;;;;;;;;;;;24.80;42.40;;;;;;1516774;76;1217;-63
2022/05/06 07:26:09;;;;;;;;;;;24.90;42.50;;;;;;1523831;76;639;-65
2022/05/06 07:28:11;;;;;;;;;;;24.90;42.50;;;;;;1522845;76;802;-63
2022/05/06 07:30:13;;;;;;;;;;;24.90;42.30;;;;;;1524200;76;648;-63
2022/05/06 07:32:15;;;;;;;;;;;25.00;42.20;;;;;;1525497;78;1928;-63
2022/05/06 07:34:16;;;;;;;;;;;25.00;42.20;;;;;;1524219;76;1138;-63
2022/05/06 07:36:18;;;;;;;;;;;25.00;42.20;;;;;;1541858;76;1705;-63
2022/05/06 07:38:20;;;;;;;;;;;25.10;42.10;;;;;;1566212;76;608;-64
2022/05/06 07:40:22;;;;;;;;;;;25.10;42.20;;;;;;1566272;75;755;-63
2022/05/06 07:42:25;;;;;;;;;;;25.00;42.20;;;;;;1532146;76;665;-63
2022/05/06 07:44:28;;;;;;;;;;;25.00;42.30;;;;;;1534414;76;1161;-63
2022/05/06 07:46:30;;;;;;;;;;;25.00;42.30;;;;;;1534888;77;767;-63
2022/05/06 07:48:32;;;;;;;;;;;25.00;42.30;;;;;;1534435;77;683;-62
2022/05/06 07:50:34;;;;;;;;;;;25.00;42.30;;;;;;1534559;77;745;-63
2022/05/06 07:52:37;;;;;;;;;;;25.00;42.30;;;;;;1535067;77;1944;-64
2022/05/06 07:54:38;;;;;;;;;;;25.00;42.30;;;;;;1542253;75;1562;-63
2022/05/06 07:56:40;;;;;;;;;;;25.00;42.30;;;;;;1531627;76;654;-63
2022/05/06 07:58:42;;;;;;;;;;;25.00;42.20;;;;;;1535817;76;756;-63
2022/05/06 08:00:44;;;;;;;;;;;25.00;42.10;;;;;;1534396;77;672;-63
2022/05/06 08:05:06;;;;;;;;;;;25.00;42.10;;;;;;1534047;76;1641;-62
2022/05/06 08:07:08;;;;;;;;;;;25.00;42.20;;;;;;1535772;76;652;-62
2022/05/06 08:09:10;;;;;;;;;;;25.00;42.10;;;;;;1531803;76;759;-63
2022/05/06 08:11:12;;;;;;;;;;;25.00;42.10;;;;;;1535412;77;652;-62
2022/05/06 08:13:14;;;;;;;;;;;25.00;42.20;;;;;;1533974;76;1929;-62
2022/05/06 08:15:16;;;;;;;;;;;24.90;42.20;;;;;;1535006;77;778;-63
2022/05/06 08:17:18;;;;;;;;;;;25.00;42.20;;;;;;1534369;77;676;-61
2022/05/06 08:19:20;;;;;;;;;;;24.90;42.20;;;;;;1529834;77;782;-63
2022/05/06 08:21:22;;;;;;;;;;;24.90;42.20;;;;;;1526191;77;789;-64
2022/05/06 08:23:24;;;;;;;;;;;25.00;42.20;;;;;;1525160;76;1249;-63
2022/05/06 08:25:27;;;;;;;;;;;24.90;42.10;;;;;;1527689;77;772;-63
2022/05/06 08:27:29;;;;;;;;;;;25.00;42.20;;;;;;1533241;76;793;-62
2022/05/06 08:29:30;;;;;;;;;;;25.00;42.10;;;;;;1527583;77;736;-62
2022/05/06 08:31:37;;;;;;;;;;;25.10;42.00;;;;;;1535135;76;1618;-63
2022/05/06 08:33:36;;;;;;;;;;;25.00;42.00;;;;;;1544348;75;1945;-63
2022/05/06 08:35:38;;;;;;;;;;;25.10;41.90;;;;;;1530681;77;649;-63
2022/05/06 08:37:41;;;;;;;;;;;25.10;42.00;;;;;;1531619;76;722;-62
2022/05/06 08:39:42;;;;;;;;;;;25.00;42.10;;;;;;1533691;77;726;-62
2022/05/06 08:41:44;;;;;;;;;;;25.00;42.00;;;;;;1534558;76;762;-63
2022/05/06 08:43:46;;;;;;;;;;;24.90;42.20;;;;;;1535029;76;1129;-62
2022/05/06 08:52:50;;;;;;;;;;;24.60;42.60;;;;;;1499674;77;1933;-62
2022/05/06 08:54:52;;;;;;;;;;;24.70;42.80;;;;;;1510409;77;1110;-63
2022/05/06 08:56:56;;;;;;;;;;;24.50;42.90;;;;;;1513358;78;788;-63
2022/05/06 08:58:57;;;;;;;;;;;24.50;43.00;;;;;;1531075;76;1697;-61
2022/05/06 09:01:09;;;;;;;;;;;24.50;43.10;;;;;;1534280;77;670;-61
2022/05/06 09:03:12;;;;;;;;;;;24.40;43.00;;;;;;1534245;77;648;-63
2022/05/06 09:05:16;;;;;;;;;;;24.40;43.10;;;;;;1533482;76;654;-62
2022/05/06 09:07:21;;;;;;;;;;;24.40;43.20;;;;;;1540471;76;1827;-64
2022/05/06 09:09:23;;;;;;;;;;;24.50;43.30;;;;;;1534650;77;595;-66
2022/05/06 09:13:51;;;;;;;;;;;24.40;43.20;;;;;;1504076;78;1923;-64
2022/05/06 09:18:22;;;;;;;;;;;24.40;43.30;;;;;;1534506;77;1078;-64
2022/05/06 09:20:24;;;;;;;;;;;24.30;43.30;;;;;;1530885;76;760;-65
2022/05/06 09:22:28;;;;;;;;;;;24.30;43.40;;;;;;1529413;77;685;-65
2022/05/06 09:24:30;;;;;;;;;;;24.40;43.40;;;;;;1530879;76;1205;-64
2022/05/06 09:26:32;;;;;;;;;;;24.40;43.30;;;;;;1533090;77;731;-64
2022/05/06 09:28:35;;;;;;;;;;;24.40;43.30;;;;;;1546793;76;1566;-64
2022/05/06 09:30:37;;;;;;;;;;;24.50;43.30;;;;;;1559705;76;684;-63
2022/05/06 09:32:39;;;;;;;;;;;24.60;43.10;;;;;;1534363;77;1940;-65
2022/05/06 09:34:41;;;;;;;;;;;24.70;43.00;;;;;;1529051;76;1119;-66
2022/05/06 09:36:43;;;;;;;;;;;24.80;42.80;;;;;;1538364;76;740;-64
2022/05/06 09:38:47;;;;;;;;;;;24.80;42.60;;;;;;1535832;77;637;-63
2022/05/06 09:40:49;;;;;;;;;;;24.80;42.40;;;;;;1536263;77;1865;-64
2022/05/06 09:43:01;;;;;;;;;;;24.90;42.30;;;;;;1535776;76;693;-64
2022/05/06 09:45:01;;;;;;;;;;;25.00;42.10;;;;;;1532394;77;1561;-65
2022/05/06 09:47:12;;;;;;;;;;;25.00;42.00;;;;;;1536631;76;1376;-63
2022/05/06 09:49:16;;;;;;;;;;;25.10;41.90;;;;;;1562819;76;690;-62
2022/05/06 09:51:19;;;;;;;;;;;25.10;41.80;;;;;;1535844;77;744;-62
2022/05/06 09:53:21;;;;;;;;;;;25.00;41.70;;;;;;1531538;76;1933;-64
2022/05/06 09:55:23;;;;;;;;;;;25.00;41.80;;;;;;1534757;77;649;-68
2022/05/06 09:57:25;;;;;;;;;;;24.90;41.80;;;;;;1535890;77;700;-63
2022/05/06 09:59:27;;;;;;;;;;;24.90;41.80;;;;;;1535306;76;738;-64
2022/05/06 10:01:29;;;;;;;;;;;24.90;41.70;;;;;;1532063;76;708;-63
2022/05/06 10:03:31;;;;;;;;;;;24.90;41.80;;;;;;1529272;76;1150;-64
2022/05/06 10:05:34;;;;;;;;;;;25.00;41.70;;;;;;1532736;76;674;-64
2022/05/06 10:07:35;;;;;;;;;;;25.00;41.60;;;;;;1533700;76;673;-64
2022/05/06 10:09:51;;;;;;;;;;;25.00;41.60;;;;;;1536275;76;550;-64
2022/05/06 10:11:53;;;;;;;;;;;25.10;41.60;;;;;;1536248;76;746;-64
2022/05/06 10:13:58;;;;;;;;;;;25.00;41.50;;;;;;1530924;76;1938;-63
2022/05/06 10:15:58;;;;;;;;;;;25.00;41.50;;;;;;1535856;76;1662;-64
2022/05/06 10:18:02;;;;;;;;;;;25.10;41.50;;;;;;1536524;76;721;-64
2022/05/06 10:20:04;;;;;;;;;;;25.10;41.50;;;;;;1535015;76;704;-64
2022/05/06 10:22:06;;;;;;;;;;;25.00;41.50;;;;;;1536141;76;671;-65
2022/05/06 10:24:15;;;;;;;;;;;25.00;41.60;;;;;;1536858;76;1419;-65
2022/05/06 10:26:37;;;;;;;;;;;25.10;41.50;;;;;;1547460;76;696;-66
2022/05/06 10:33:18;;;;;;;;;;;25.10;41.50;;;;;;1536433;76;1896;-65
2022/05/06 10:35:22;;;;;;;;;;;25.00;41.70;;;;;;1533895;76;733;-65
2022/05/06 10:37:26;;;;;;;;;;;25.00;41.70;;;;;;1518828;76;1226;-63
2022/05/06 10:39:39;;;;;;;;;;;25.00;41.70;;;;;;1536274;76;1680;-63
2022/05/06 10:41:39;;;;;;;;;;;25.00;41.70;;;;;;1534664;76;1302;-64
2022/05/06 10:43:43;;;;;;;;;;;25.00;41.80;;;;;;1514008;77;1584;-64
2022/05/06 10:45:47;;;;;;;;;;;25.00;41.70;;;;;;1539399;76;597;-63
2022/05/06 10:47:50;;;;;;;;;;;25.00;41.70;;;;;;1535961;76;717;-64
2022/05/06 10:49:52;;;;;;;;;;;25.00;41.80;;;;;;1536239;76;533;-63
2022/05/06 10:51:54;;;;;;;;;;;24.90;41.80;;;;;;1535627;76;737;-64
2022/05/06 10:53:56;;;;;;;;;;;24.90;41.90;;;;;;1512226;76;1946;-62
2022/05/06 10:55:58;;;;;;;;;;;24.90;41.90;;;;;;1529953;76;639;-64
2022/05/06 10:58:01;;;;;;;;;;;25.00;41.90;;;;;;1536200;76;671;-63
2022/05/06 11:00:04;;;;;;;;;;;24.90;42.00;;;;;;1541307;76;1802;-63
2022/05/06 11:02:12;;;;;;;;;;;24.80;42.00;;;;;;1536913;76;668;-63
2022/05/06 11:04:15;;;;;;;;;;;24.90;42.10;;;;;;1535636;76;1190;-63
2022/05/06 11:06:19;;;;;;;;;;;24.80;42.00;;;;;;1535932;76;1884;-66
2022/05/06 11:08:21;;;;;;;;;;;24.90;42.20;;;;;;1536126;76;1864;-66
2022/05/06 11:10:25;;;;;;;;;;;24.80;42.10;;;;;;1534948;76;675;-63
2022/05/06 11:12:34;;;;;;;;;;;24.90;42.20;;;;;;1536428;76;725;-65
2022/05/06 11:14:36;;;;;;;;;;;24.90;42.30;;;;;;1536303;76;1158;-66
2022/05/06 11:16:38;;;;;;;;;;;24.90;42.20;;;;;;1538256;76;780;-64
2022/05/06 11:18:44;;;;;;;;;;;24.90;42.20;;;;;;1537271;76;724;-65
2022/05/06 11:20:46;;;;;;;;;;;24.90;42.20;;;;;;1535864;76;1588;-65
2022/05/06 11:22:50;;;;;;;;;;;24.90;42.20;;;;;;1543291;76;777;-64
2022/05/06 11:24:58;;;;;;;;;;;24.90;42.10;;;;;;1534734;76;1906;-65
2022/05/06 11:27:16;;;;;;;;;;;25.00;42.10;;;;;;1529259;76;741;-63
2022/05/06 11:29:18;;;;;;;;;;;25.00;42.10;;;;;;1535350;76;1784;-64
2022/05/06 11:31:20;;;;;;;;;;;25.00;42.00;;;;;;1535414;76;719;-64
2022/05/06 11:33:25;;;;;;;;;;;25.00;42.00;;;;;;1538604;76;1936;-64
2022/05/06 11:35:34;;;;;;;;;;;25.00;42.00;;;;;;1533494;76;906;-64
2022/05/06 11:37:38;;;;;;;;;;;25.00;42.00;;;;;;1533873;76;585;-66
2022/05/06 11:39:40;;;;;;;;;;;24.90;42.00;;;;;;1543719;76;2000;-64
2022/05/06 11:41:42;;;;;;;;;;;24.90;42.10;;;;;;1530935;76;774;-65
2022/05/06 11:43:45;;;;;;;;;;;25.00;42.10;;;;;;1537663;76;1153;-66
2022/05/06 11:48:08;;;;;;;;;;;25.00;42.00;;;;;;1535675;76;686;-65
2022/05/06 11:50:10;;;;;;;;;;;25.00;42.00;;;;;;1535844;76;537;-65
2022/05/06 11:52:12;;;;;;;;;;;25.00;42.00;;;;;;1534231;76;956;-65
2022/05/06 11:54:17;;;;;;;;;;;25.00;41.90;;;;;;1536083;76;1939;-65
2022/05/06 11:56:23;;;;;;;;;;;25.00;41.90;;;;;;1543162;76;679;-65
2022/05/06 11:58:25;;;;;;;;;;;25.10;41.90;;;;;;1536196;76;771;-65
2022/05/06 12:00:27;;;;;;;;;;;25.10;41.90;;;;;;1535812;76;734;-68
2022/05/06 12:02:29;;;;;;;;;;;25.10;41.90;;;;;;1528850;76;682;-67
2022/05/06 12:04:32;;;;;;;;;;;25.10;41.90;;;;;;1530139;76;1180;-66
2022/05/06 12:06:37;;;;;;;;;;;25.10;41.90;;;;;;1538689;76;649;-64
2022/05/06 12:08:37;;;;;;;;;;;25.10;41.90;;;;;;1529338;76;1722;-65
2022/05/06 12:10:39;;;;;;;;;;;25.00;41.80;;;;;;1533542;76;639;-68
2022/05/06 12:12:59;;;;;;;;;;;25.10;41.90;;;;;;1532044;76;718;-65
2022/05/06 12:15:10;;;;;;;;;;;25.10;41.80;;;;;;1529914;76;1108;-64
2022/05/06 12:17:14;;;;;;;;;;;25.10;41.80;;;;;;1530391;76;1591;-65
2022/05/06 12:19:16;;;;;;;;;;;25.00;41.90;;;;;;1539887;76;1129;-64
2022/05/06 12:21:18;;;;;;;;;;;25.00;42.00;;;;;;1544775;76;674;-65
2022/05/06 12:23:22;;;;;;;;;;;25.00;42.10;;;;;;1535324;76;1145;-66
2022/05/06 12:25:24;;;;;;;;;;;25.10;42.00;;;;;;1533003;76;1791;-67
2022/05/06 12:27:26;;;;;;;;;;;25.00;42.10;;;;;;1531871;76;660;-64
2022/05/06 12:29:28;;;;;;;;;;;24.90;42.10;;;;;;1533984;76;779;-64
2022/05/06 12:31:31;;;;;;;;;;;25.10;42.20;;;;;;1537086;76;645;-64
2022/05/06 12:33:36;;;;;;;;;;;25.00;42.20;;;;;;1559115;76;1955;-65
2022/05/06 12:35:42;;;;;;;;;;;25.00;42.20;;;;;;1546247;76;1493;-65
2022/05/06 12:37:57;;;;;;;;;;;25.00;42.20;;;;;;1515748;76;1760;-64
2022/05/06 12:39:59;;;;;;;;;;;25.00;42.20;;;;;;1553190;76;760;-65
2022/05/06 12:42:01;;;;;;;;;;;25.00;42.20;;;;;;1540853;76;677;-64
2022/05/06 12:44:17;;;;;;;;;;;25.00;42.10;;;;;;1539437;76;1162;-65
2022/05/06 12:46:31;;;;;;;;;;;25.10;42.00;;;;;;1533964;76;702;-65
2022/05/06 12:50:53;;;;;;;;;;;25.10;41.90;;;;;;1526197;76;1617;-62
2022/05/06 12:52:55;;;;;;;;;;;25.10;41.90;;;;;;1535953;76;714;-65